createdAt,value
2019-01-04T00:01:47.049Z,101960.95
2019-01-04T00:04:35.314Z,101962.14
2019-01-04T00:07:23.730Z,101943.58
2019-01-04T00:09:53.504Z,101946.80
2019-01-04T00:12:22.690Z,101943.32
2019-01-04T00:17:27.256Z,101937.66
2019-01-04T00:19:56.566Z,101929.27
2019-01-04T00:22:25.758Z,101927.34
2019-01-04T00:24:55.350Z,101915.99
2019-01-04T00:27:24.602Z,101916.64
2019-01-04T00:30:12.946Z,101903.09
2019-01-04T00:32:42.183Z,101914.97
2019-01-04T00:35:11.380Z,101915.61
2019-01-04T00:37:40.845Z,101912.39
2019-01-04T00:40:10.194Z,101901.03
2019-01-04T00:42:39.382Z,101914.97
2019-01-04T00:45:09.079Z,101898.97
2019-01-04T00:47:38.277Z,101887.61
2019-01-04T00:50:08.379Z,101879.35
2019-01-04T00:52:37.675Z,101879.09
2019-01-04T00:55:44.933Z,101873.92
2019-01-04T00:58:52.321Z,101867.08
2019-01-04T01:01:59.615Z,101863.45
2019-01-04T01:05:06.953Z,101856.34
2019-01-04T01:08:14.295Z,101843.69
2019-01-04T01:11:21.747Z,101857.50
2019-01-04T01:14:29.039Z,101809.47
2019-01-04T01:17:36.446Z,101835.67
2019-01-04T01:20:43.717Z,101824.03
2019-01-04T01:23:51.068Z,101819.63
2019-01-04T01:27:07.809Z,101822.46
2019-01-04T01:33:24.193Z,101804.22
2019-01-04T01:36:31.447Z,101795.55
2019-01-04T01:39:38.896Z,101801.47
2019-01-04T01:46:00.011Z,101790.06
2019-01-04T01:48:52.418Z,101792.38
2019-01-04T01:52:00.086Z,101792.89
2019-01-04T01:54:29.304Z,101788.09
2019-01-04T01:56:58.525Z,101777.88
2019-01-04T01:59:46.815Z,101772.94
2019-01-04T02:02:16.011Z,101775.38
2019-01-04T02:04:45.213Z,101768.38
2019-01-04T02:07:14.546Z,101759.95
2019-01-04T02:09:43.726Z,101758.13
2019-01-04T02:12:13.045Z,101755.00
2019-01-04T02:14:42.344Z,101747.20
2019-01-04T02:17:11.563Z,101754.02
2019-01-04T02:19:59.854Z,101746.11
2019-01-04T02:22:29.062Z,101734.44
2019-01-04T02:24:58.251Z,101732.98
2019-01-04T02:27:27.592Z,101727.66
2019-01-04T02:29:56.766Z,101727.10
2019-01-04T02:32:25.972Z,101712.99
2019-01-04T02:34:55.250Z,101724.08
2019-01-04T02:37:24.488Z,101712.16
2019-01-04T02:39:53.676Z,101710.83
2019-01-04T02:42:41.894Z,101704.59
2019-01-04T02:45:11.091Z,101702.85
2019-01-04T02:47:40.303Z,101699.09
2019-01-04T02:50:09.660Z,101692.84
2019-01-04T02:52:38.882Z,101701.74
2019-01-04T02:55:08.064Z,101686.44
2019-01-04T02:57:38.081Z,101692.97
2019-01-04T03:00:26.814Z,101683.24
2019-01-04T03:02:56.470Z,101699.00
2019-01-04T03:05:44.641Z,101691.97
2019-01-04T03:08:14.106Z,101684.70
2019-01-04T03:10:43.300Z,101685.21
2019-01-04T03:13:12.595Z,101670.19
2019-01-04T03:15:42.309Z,101663.15
2019-01-04T03:18:11.493Z,101668.23
2019-01-04T03:20:59.738Z,101651.41
2019-01-04T03:23:28.930Z,101652.19
2019-01-04T03:25:58.119Z,101643.52
2019-01-04T03:28:46.443Z,101630.19
2019-01-04T03:31:15.714Z,101637.16
2019-01-04T03:33:44.890Z,101637.05
2019-01-04T03:36:14.390Z,101635.69
2019-01-04T03:38:43.566Z,101635.17
2019-01-04T03:41:12.751Z,101629.20
2019-01-04T03:43:42.182Z,101617.95
2019-01-04T03:46:11.390Z,101620.03
2019-01-04T03:48:40.959Z,101613.56
2019-01-04T03:51:10.294Z,101606.70
2019-01-04T03:53:39.469Z,101605.01
2019-01-04T03:56:08.659Z,101597.13
2019-01-04T04:01:12.481Z,101584.41
2019-01-04T04:03:41.694Z,101579.92
2019-01-04T04:06:10.899Z,101578.34
2019-01-04T04:08:40.171Z,101576.25
2019-01-04T04:11:09.408Z,101567.19
2019-01-04T04:13:38.607Z,101563.92
2019-01-04T04:16:07.981Z,101559.24
2019-01-04T04:18:37.302Z,101552.59
2019-01-04T04:21:06.526Z,101550.00
2019-01-04T04:26:24.143Z,101528.89
2019-01-04T04:28:53.339Z,101527.59
2019-01-04T04:31:22.537Z,101515.84
2019-01-04T04:36:27.179Z,101496.52
2019-01-04T04:38:56.410Z,101486.27
2019-01-04T04:41:25.607Z,101506.70
2019-01-04T04:43:55.082Z,101489.86
2019-01-04T04:46:24.322Z,101502.13
2019-01-04T04:48:53.763Z,101497.05
2019-01-04T04:51:23.396Z,101490.18
2019-01-04T04:53:52.608Z,101490.28
2019-01-04T04:59:10.338Z,101477.47
2019-01-04T05:01:39.544Z,101476.67
2019-01-04T05:04:08.911Z,101469.01
2019-01-04T05:06:38.437Z,101466.81
2019-01-04T05:09:26.991Z,101453.06
2019-01-04T05:11:56.589Z,101454.77
2019-01-04T05:14:25.804Z,101457.75
2019-01-04T05:16:55.049Z,101453.47
2019-01-04T05:19:24.401Z,101449.69
2019-01-04T05:21:53.599Z,101455.37
2019-01-04T05:24:22.786Z,101436.63
2019-01-04T05:26:53.014Z,101438.32
2019-01-04T05:29:22.215Z,101429.36
2019-01-04T05:31:51.403Z,101433.85
2019-01-04T05:34:20.787Z,101430.66
2019-01-04T05:36:49.970Z,101417.80
2019-01-04T05:39:19.175Z,101410.44
2019-01-04T05:41:48.597Z,101400.87
2019-01-04T05:44:17.796Z,101400.77
2019-01-04T05:47:06.140Z,101411.23
2019-01-04T05:49:36.016Z,101402.35
2019-01-04T05:52:05.218Z,101419.08
2019-01-04T05:57:22.897Z,101407.63
2019-01-04T06:00:11.380Z,101398.67
2019-01-04T06:02:40.649Z,101396.19
2019-01-04T06:05:09.830Z,101390.11
2019-01-04T06:10:14.719Z,101400.27
2019-01-04T06:13:02.871Z,101394.28
2019-01-04T06:15:51.157Z,101391.00
2019-01-04T06:18:20.487Z,101391.91
2019-01-04T06:20:49.859Z,101396.78
2019-01-04T06:23:19.139Z,101387.33
2019-01-04T06:25:48.390Z,101381.75
2019-01-04T06:28:17.605Z,101374.47
2019-01-04T06:31:05.973Z,101376.27
2019-01-04T06:33:35.172Z,101380.16
2019-01-04T06:36:04.605Z,101381.95
2019-01-04T06:38:34.030Z,101386.34
2019-01-04T06:41:03.266Z,101375.17
2019-01-04T06:43:32.462Z,101375.38
2019-01-04T06:46:01.881Z,101376.37
2019-01-04T06:48:31.062Z,101374.78
2019-01-04T06:51:00.278Z,101369.61
2019-01-04T06:53:29.599Z,101356.23
2019-01-04T06:56:00.642Z,101378.38
2019-01-04T06:58:29.967Z,101387.55
2019-01-04T07:00:59.199Z,101386.35
2019-01-04T07:03:28.399Z,101384.27
2019-01-04T07:05:57.672Z,101391.73
2019-01-04T07:08:26.895Z,101386.25
2019-01-04T07:10:56.124Z,101384.56
2019-01-04T07:13:25.486Z,101380.78
2019-01-04T07:15:54.723Z,101373.20
2019-01-04T07:18:23.921Z,101374.00
2019-01-04T07:20:53.466Z,101365.13
2019-01-04T07:23:24.021Z,101366.42
2019-01-04T07:25:54.089Z,101360.84
2019-01-04T07:28:23.269Z,101361.74
2019-01-04T07:30:52.529Z,101359.05
2019-01-04T07:33:21.873Z,101351.47
2019-01-04T07:35:51.049Z,101358.05
2019-01-04T07:38:20.569Z,101348.98
2019-01-04T07:43:38.261Z,101356.05
2019-01-04T07:46:07.854Z,101351.87
2019-01-04T07:48:37.054Z,101345.39
2019-01-04T07:51:06.975Z,101337.31
2019-01-04T07:53:36.597Z,101342.59
2019-01-04T07:58:54.144Z,101343.39
2019-01-04T08:01:23.330Z,101342.69
2019-01-04T08:03:52.504Z,101336.70
2019-01-04T08:06:22.018Z,101341.19
2019-01-04T08:08:51.390Z,101340.69
2019-01-04T08:11:20.590Z,101342.28
2019-01-04T08:13:50.018Z,101338.00
2019-01-04T08:16:19.210Z,101337.30
2019-01-04T08:18:48.433Z,101338.59
2019-01-04T08:21:17.750Z,101335.90
2019-01-04T08:23:47.029Z,101336.30
2019-01-04T08:26:16.331Z,101334.11
2019-01-04T08:28:45.689Z,101332.71
2019-01-04T08:31:14.884Z,101332.52
2019-01-04T08:33:44.570Z,101329.33
2019-01-04T08:36:13.893Z,101329.53
2019-01-04T08:38:43.098Z,101318.07
2019-01-04T08:41:12.288Z,101324.75
2019-01-04T08:43:41.639Z,101337.32
2019-01-04T08:46:10.830Z,101321.17
2019-01-04T08:48:40.020Z,101320.38
2019-01-04T08:51:09.356Z,101333.44
2019-01-04T08:54:16.591Z,101312.20
2019-01-04T08:57:05.080Z,101313.89
2019-01-04T08:59:34.266Z,101310.31
2019-01-04T09:02:03.467Z,101312.30
2019-01-04T09:04:33.053Z,101306.62
2019-01-04T09:07:02.252Z,101303.63
2019-01-04T09:09:31.453Z,101298.95
2019-01-04T09:12:00.874Z,101300.14
2019-01-04T09:14:30.082Z,101302.34
2019-01-04T09:17:00.109Z,101293.17
2019-01-04T09:19:30.390Z,101294.47
2019-01-04T09:21:59.949Z,101292.88
2019-01-04T09:24:29.238Z,101281.61
2019-01-04T09:26:58.830Z,101279.91
2019-01-04T09:29:28.015Z,101276.03
2019-01-04T09:31:57.234Z,101267.95
2019-01-04T09:34:26.599Z,101252.51
2019-01-04T09:37:14.777Z,101250.61
2019-01-04T09:39:44.094Z,101238.55
2019-01-04T09:42:33.283Z,101248.61
2019-01-04T09:45:02.931Z,101242.23
2019-01-04T09:47:32.120Z,101253.69
2019-01-04T09:50:01.425Z,101234.44
2019-01-04T09:52:30.920Z,101243.30
2019-01-04T09:55:00.156Z,101231.73
2019-01-04T09:57:29.331Z,101218.38
2019-01-04T09:59:58.819Z,101227.05
2019-01-04T10:02:28.008Z,101218.48
2019-01-04T10:04:57.232Z,101218.27
2019-01-04T10:07:26.928Z,101215.38
2019-01-04T10:09:56.125Z,101220.44
2019-01-04T10:12:25.351Z,101220.63
2019-01-04T10:14:54.820Z,101208.26
2019-01-04T10:17:24.009Z,101208.26
2019-01-04T10:19:53.200Z,101204.86
2019-01-04T10:22:22.823Z,101214.93
2019-01-04T10:25:10.939Z,101199.87
2019-01-04T10:27:40.402Z,101189.50
2019-01-04T10:30:30.926Z,101185.61
2019-01-04T10:36:01.924Z,101188.60
2019-01-04T10:38:31.121Z,101175.64
2019-01-04T10:41:00.317Z,101172.64
2019-01-04T10:43:30.232Z,101182.21
2019-01-04T10:45:59.417Z,101183.51
2019-01-04T10:48:28.599Z,101174.03
2019-01-04T10:50:58.149Z,101171.53
2019-01-04T10:53:27.343Z,101166.63
2019-01-04T10:55:56.530Z,101180.18
2019-01-04T10:58:25.885Z,101168.51
2019-01-04T11:00:55.094Z,101162.02
2019-01-04T11:03:24.281Z,101170.80
2019-01-04T11:05:53.929Z,101167.30
2019-01-04T11:08:23.136Z,101168.69
2019-01-04T11:10:52.356Z,101158.01
2019-01-04T11:13:21.709Z,101159.70
2019-01-04T11:15:50.897Z,101148.94
2019-01-04T11:18:20.108Z,101157.70
2019-01-04T11:20:49.900Z,101154.12
2019-01-04T11:23:57.154Z,101161.63
2019-01-04T11:26:50.518Z,101144.19
2019-01-04T11:29:41.362Z,101131.44
2019-01-04T11:32:48.742Z,101140.72
2019-01-04T11:35:42.847Z,101130.97
2019-01-04T11:38:43.196Z,101119.03
2019-01-04T11:41:50.570Z,101114.06
2019-01-04T11:44:58.000Z,101108.28
2019-01-04T11:47:59.304Z,101104.70
2019-01-04T11:51:07.206Z,101101.93
2019-01-04T11:53:36.419Z,101091.28
2019-01-04T11:56:05.634Z,101083.81
2019-01-04T11:58:35.134Z,101068.27
2019-01-04T12:01:04.410Z,101074.25
2019-01-04T12:03:33.592Z,101065.27
2019-01-04T12:06:02.928Z,101074.44
2019-01-04T12:08:32.145Z,101078.42
2019-01-04T12:11:01.326Z,101062.16
2019-01-04T12:13:49.624Z,101062.16
2019-01-04T12:16:18.832Z,101059.16
2019-01-04T12:18:48.054Z,101060.05
2019-01-04T12:21:17.612Z,101053.80
2019-01-04T12:24:05.727Z,101054.28
2019-01-04T12:26:35.222Z,101055.05
2019-01-04T12:29:04.467Z,101054.44
2019-01-04T12:31:33.787Z,101047.33
2019-01-04T12:34:03.074Z,101048.23
2019-01-04T12:36:32.277Z,101048.23
2019-01-04T12:39:01.453Z,101052.83
2019-01-04T12:41:31.125Z,101045.36
2019-01-04T12:44:00.383Z,101042.59
2019-01-04T12:49:24.967Z,101037.16
2019-01-04T12:51:54.217Z,101031.70
2019-01-04T12:54:23.399Z,101033.00
2019-01-04T12:56:52.828Z,101030.10
2019-01-04T13:02:10.577Z,101023.49
2019-01-04T13:04:39.766Z,101018.89
2019-01-04T13:07:09.005Z,101022.47
2019-01-04T13:09:38.343Z,101013.09
2019-01-04T13:12:07.550Z,101009.07
2019-01-04T13:14:36.756Z,101005.36
2019-01-04T13:17:06.394Z,101003.08
2019-01-04T13:19:35.955Z,101006.56
2019-01-04T13:22:05.159Z,101015.64
2019-01-04T13:24:53.561Z,101006.08
2019-01-04T13:27:22.776Z,101001.60
2019-01-04T13:29:51.977Z,101007.19
2019-01-04T13:32:21.527Z,101011.39
2019-01-04T13:35:09.639Z,101004.51
2019-01-04T13:37:39.077Z,101010.09
2019-01-04T13:40:08.294Z,101007.99
2019-01-04T13:42:37.576Z,101006.70
2019-01-04T13:45:07.798Z,101003.13
2019-01-04T13:47:36.982Z,101001.73
2019-01-04T13:50:06.912Z,100988.20
2019-01-04T13:52:55.146Z,100991.50
2019-01-04T13:55:24.342Z,101002.67
2019-01-04T13:58:12.661Z,100995.30
2019-01-04T14:00:41.877Z,100991.81
2019-01-04T14:03:11.066Z,100987.44
2019-01-04T14:05:40.489Z,100988.23
2019-01-04T14:11:18.922Z,100995.02
2019-01-04T14:13:48.136Z,100981.08
2019-01-04T14:16:17.352Z,100986.48
2019-01-04T14:21:28.983Z,100982.81
2019-01-04T14:23:58.223Z,100979.73
2019-01-04T14:26:27.429Z,100984.42
2019-01-04T14:28:56.833Z,100971.88
2019-01-04T14:31:26.062Z,100981.34
2019-01-04T14:33:55.418Z,100975.66
2019-01-04T14:36:24.859Z,100979.06
2019-01-04T14:38:54.124Z,100981.56
2019-01-04T14:41:23.521Z,100975.66
2019-01-04T14:43:53.031Z,100973.57
2019-01-04T14:46:22.289Z,100981.92
2019-01-04T14:48:51.520Z,100981.61
2019-01-04T14:51:20.860Z,100981.03
2019-01-04T14:53:50.111Z,100984.42
2019-01-04T14:56:19.326Z,100980.54
2019-01-04T14:58:48.592Z,100982.02
2019-01-04T15:01:17.838Z,100993.67
2019-01-04T15:03:47.026Z,100981.52
2019-01-04T15:06:16.393Z,100980.72
2019-01-04T15:11:20.095Z,100969.15
2019-01-04T15:13:49.315Z,100960.88
2019-01-04T15:16:18.512Z,100965.48
2019-01-04T15:18:48.348Z,100970.58
2019-01-04T15:21:17.582Z,100976.74
2019-01-04T15:23:46.783Z,100975.53
2019-01-04T15:26:16.068Z,100978.22
2019-01-04T15:28:45.385Z,100968.75
2019-01-04T15:31:14.574Z,100834.47
2019-01-04T15:36:32.273Z,100977.69
2019-01-04T15:39:01.573Z,100960.04
2019-01-04T15:41:30.824Z,100964.82
2019-01-04T15:46:34.748Z,100967.01
2019-01-04T15:49:22.989Z,100966.20
2019-01-04T15:51:52.461Z,100965.31
2019-01-04T15:54:21.718Z,100961.52
2019-01-04T15:56:50.961Z,100960.71
2019-01-04T15:59:20.371Z,100978.14
2019-01-04T16:01:49.576Z,100977.83
2019-01-04T16:04:18.810Z,100970.23
2019-01-04T16:06:48.261Z,100969.52
2019-01-04T16:09:17.458Z,100970.90
2019-01-04T16:11:46.737Z,100970.90
2019-01-04T16:17:04.310Z,100975.41
2019-01-04T16:19:33.563Z,100984.08
2019-01-04T16:22:02.756Z,100986.28
2019-01-04T16:24:32.205Z,100984.17
2019-01-04T16:27:01.401Z,100991.55
2019-01-04T16:29:30.618Z,100982.08
2019-01-04T16:32:00.125Z,100973.31
2019-01-04T16:34:29.366Z,100976.80
2019-01-04T16:36:58.992Z,100970.72
2019-01-04T16:39:28.417Z,100979.80
2019-01-04T16:41:57.668Z,100976.09
2019-01-04T16:44:46.047Z,100976.98
2019-01-04T16:47:15.249Z,100986.55
2019-01-04T16:49:44.457Z,100980.16
2019-01-04T16:52:13.772Z,100980.73
2019-01-04T16:55:01.884Z,100975.14
2019-01-04T16:57:50.393Z,100976.44
2019-01-04T17:00:19.606Z,100969.64
2019-01-04T17:02:48.802Z,100967.86
2019-01-04T17:07:53.728Z,100731.38
2019-01-04T17:10:22.950Z,100982.34
2019-01-04T17:12:52.151Z,100981.54
2019-01-04T17:15:21.781Z,100985.42
2019-01-04T17:17:51.110Z,100993.70
2019-01-04T17:20:20.312Z,100991.59
2019-01-04T17:22:49.704Z,100988.69
2019-01-04T17:25:38.019Z,100989.18
2019-01-04T17:28:07.430Z,100994.86
2019-01-04T17:30:36.628Z,100995.75
2019-01-04T17:33:07.913Z,101001.92
2019-01-04T17:35:37.382Z,101002.41
2019-01-04T17:38:06.671Z,100998.20
2019-01-04T17:40:35.903Z,101003.17
2019-01-04T17:43:24.115Z,101003.66
2019-01-04T17:48:47.273Z,100999.64
2019-01-04T17:51:16.498Z,100997.70
2019-01-04T17:53:46.299Z,100998.69
2019-01-04T17:56:15.581Z,101002.76
2019-01-04T17:58:44.828Z,101004.72
2019-01-04T18:01:14.042Z,100999.70
2019-01-04T18:03:43.487Z,101000.78
2019-01-04T18:06:12.959Z,101012.22
2019-01-04T18:08:42.159Z,101016.61
2019-01-04T18:11:11.456Z,101019.86
2019-01-04T18:13:40.677Z,101018.56
2019-01-04T18:16:09.890Z,101025.95
2019-01-04T18:18:39.262Z,101029.03
2019-01-04T18:21:08.506Z,101027.82
2019-01-04T18:23:56.847Z,101020.13
2019-01-04T18:26:26.139Z,101025.48
2019-01-04T18:29:14.494Z,101017.70
2019-01-04T18:31:43.765Z,101022.98
2019-01-04T18:34:12.955Z,101019.49
2019-01-04T18:36:42.394Z,101020.39
2019-01-04T18:39:11.695Z,101025.58
2019-01-04T18:41:40.893Z,101026.47
2019-01-04T18:44:10.155Z,101021.77
2019-01-04T18:47:00.800Z,101026.55
2019-01-04T18:49:30.088Z,101022.75
2019-01-04T18:51:59.284Z,101016.75
2019-01-04T18:54:28.507Z,101018.94
2019-01-04T18:56:58.095Z,101020.33
2019-01-04T18:59:27.283Z,101018.14
2019-01-04T19:01:56.595Z,101025.52
2019-01-04T19:04:44.863Z,101032.90
2019-01-04T19:09:54.023Z,101035.50
2019-01-04T19:12:23.256Z,101035.98
2019-01-04T19:17:59.791Z,101049.86
2019-01-04T19:20:47.920Z,101046.36
2019-01-04T19:23:17.226Z,101053.75
2019-01-04T19:28:34.860Z,101054.64
2019-01-04T19:31:04.065Z,101056.43
2019-01-04T19:33:33.246Z,101049.94
2019-01-04T19:36:02.670Z,101055.62
2019-01-04T19:38:32.366Z,101052.53
2019-01-04T19:41:01.658Z,101050.26
2019-01-04T19:43:30.988Z,101058.53
2019-01-04T19:46:19.255Z,101065.42
2019-01-04T19:48:48.718Z,101068.91
2019-01-04T19:51:17.919Z,101068.02
2019-01-04T19:53:47.144Z,101058.94
2019-01-04T19:56:16.614Z,101059.34
2019-01-04T19:58:46.184Z,101065.83
2019-01-04T20:04:22.711Z,101059.34
2019-01-04T20:07:48.872Z,101056.34
2019-01-04T20:11:15.154Z,101043.69
2019-01-04T20:14:41.316Z,101041.00
2019-01-04T20:17:29.569Z,101051.70
2019-01-04T20:23:12.129Z,101048.09
2019-01-04T20:26:19.239Z,101047.02
2019-01-04T20:29:07.586Z,101040.04
2019-01-04T20:31:51.474Z,101048.77
2019-01-04T20:34:39.777Z,101057.98
2019-01-04T20:37:27.895Z,101055.44
2019-01-04T20:40:16.290Z,101054.77
2019-01-04T20:42:55.373Z,101046.13
2019-01-04T20:45:43.689Z,101044.17
2019-01-04T20:48:31.854Z,101037.59
2019-01-04T20:51:20.461Z,101036.70
2019-01-04T20:54:08.585Z,101026.73
2019-01-04T20:56:57.151Z,101031.42
2019-01-04T20:59:45.263Z,101036.70
2019-01-04T21:02:33.522Z,101049.04
2019-01-04T21:05:21.649Z,101051.81
2019-01-04T21:08:09.929Z,101047.70
2019-01-04T21:10:58.037Z,101060.44
2019-01-04T21:13:46.707Z,101060.63
2019-01-04T21:16:34.781Z,101073.86
2019-01-04T21:19:23.199Z,101078.83
2019-01-04T21:22:11.318Z,101080.30
2019-01-04T21:25:00.353Z,101084.69
2019-01-04T21:28:00.384Z,101085.35
2019-01-04T21:30:48.827Z,101088.93
2019-01-04T21:33:36.939Z,101079.05
2019-01-04T21:36:25.262Z,101063.97
2019-01-04T21:39:13.426Z,101072.55
2019-01-04T21:42:01.838Z,101080.25
2019-01-04T21:44:50.028Z,101082.94
2019-01-04T21:50:20.409Z,101081.73
2019-01-04T21:53:20.445Z,101078.73
2019-01-04T21:56:08.740Z,101090.09
2019-01-04T21:58:56.889Z,101082.31
2019-01-04T22:01:45.219Z,101092.59
2019-01-04T22:04:33.331Z,101092.19
2019-01-04T22:07:21.799Z,101087.50
2019-01-04T22:10:28.908Z,101092.69
2019-01-04T22:13:17.313Z,101097.87
2019-01-04T22:16:14.477Z,101103.06
2019-01-04T22:19:02.765Z,101104.36
2019-01-04T22:21:50.894Z,101107.45
2019-01-04T22:24:39.410Z,101118.63
2019-01-04T22:30:21.145Z,101115.64
2019-01-04T22:33:09.308Z,101117.42
2019-01-04T22:35:57.655Z,101119.22
2019-01-04T22:38:45.783Z,101130.00
2019-01-04T22:41:34.293Z,101135.19
2019-01-04T22:44:17.644Z,101136.97
2019-01-04T22:47:06.344Z,101143.95
2019-01-04T22:49:54.451Z,101135.36
2019-01-04T22:53:03.960Z,101134.06
2019-01-04T22:55:52.081Z,101142.34
2019-01-04T22:58:40.449Z,101142.34
2019-01-04T23:01:28.667Z,101141.45
2019-01-04T23:04:17.043Z,101161.81
2019-01-04T23:07:05.140Z,101164.40
2019-01-04T23:09:53.362Z,101174.29
2019-01-04T23:12:41.523Z,101179.57
2019-01-04T23:15:29.803Z,101174.29
2019-01-04T23:18:17.928Z,101170.39
2019-01-04T23:21:06.402Z,101174.59
2019-01-04T23:23:54.793Z,101177.20
2019-01-04T23:26:42.966Z,101179.39
2019-01-04T23:29:23.771Z,101188.96
2019-01-04T23:32:30.992Z,101189.67
2019-01-04T23:35:19.223Z,101186.50
2019-01-04T23:38:07.363Z,101180.81
2019-01-04T23:43:56.655Z,101145.59
2019-01-04T23:46:44.882Z,101182.42
2019-01-04T23:49:38.741Z,101177.95
2019-01-04T23:52:26.839Z,101180.67
2019-01-04T23:55:15.088Z,101176.50
2019-01-04T23:58:03.200Z,101173.14
